Time;durP1;ratioP1;P1;durP2;ratioP2;P2;SDS_P1;SDS_P2;PMS_P1;PMS_P2;Temp;Humidity;BMP_temperature;BMP_pressure;BME280_temperature;BME280_humidity;BME280_pressure;Samples;Min_cycle;Max_cycle;Signal;HPM_P1;HPM_P2
2023/03/19 00:02:06;;;;;;;25.95;10.75;;;;;;;3.22;65.09;95588.94;5017653;28;20326;-74
2023/03/19 00:04:33;;;;;;;21.95;10.48;;;;;;;3.20;64.57;95595.66;5017726;28;20204;-74
2023/03/19 00:07:00;;;;;;;24.27;12.43;;;;;;;3.19;65.69;95591.47;5016936;28;20266;-74
2023/03/19 00:09:26;;;;;;;27.02;13.40;;;;;;;3.20;65.71;95593.16;5016846;28;20212;-74
2023/03/19 00:11:53;;;;;;;19.15;11.55;;;;;;;3.12;65.68;95577.22;5016899;28;20232;-73
2023/03/19 00:14:21;;;;;;;19.27;12.77;;;;;;;3.16;65.74;95580.59;5018065;28;20311;-74
2023/03/19 00:16:48;;;;;;;29.98;14.70;;;;;;;3.14;65.85;95589.78;5016970;28;20196;-74
2023/03/19 00:19:15;;;;;;;29.03;14.30;;;;;;;3.13;65.94;95593.13;5017479;28;20302;-74
2023/03/19 00:21:42;;;;;;;23.92;14.27;;;;;;;3.15;66.00;95587.28;5017301;28;20319;-74
2023/03/19 00:24:09;;;;;;;28.83;14.98;;;;;;;3.10;66.23;95578.88;5017668;28;20318;-74
2023/03/19 00:26:37;;;;;;;28.58;15.70;;;;;;;3.13;66.22;95578.91;5017243;28;21222;-74
2023/03/19 00:29:04;;;;;;;28.17;15.55;;;;;;;3.11;65.99;95579.72;5017643;28;20235;-72
2023/03/19 00:31:33;;;;;;;28.77;15.27;;;;;;;3.06;66.76;95577.19;5017032;28;20291;-75
2023/03/19 00:34:01;;;;;;;28.60;15.15;;;;;;;3.06;66.24;95577.19;5016885;28;20249;-73
2023/03/19 00:36:28;;;;;;;31.27;15.13;;;;;;;3.06;66.13;95577.19;5016093;28;20652;-72
2023/03/19 00:38:56;;;;;;;26.45;16.55;;;;;;;3.02;66.40;95575.50;5017633;28;20211;-74
2023/03/19 00:41:23;;;;;;;32.63;16.90;;;;;;;3.01;66.21;95568.78;5016326;28;20686;-72
2023/03/19 00:43:53;;;;;;;30.98;18.40;;;;;;;3.02;66.70;95562.94;5016379;28;20212;-74
2023/03/19 00:46:20;;;;;;;27.88;15.48;;;;;;;2.94;67.07;95557.91;5017158;28;20218;-75
2023/03/19 00:48:49;;;;;;;30.13;16.27;;;;;;;2.89;67.12;95563.75;5016393;28;20225;-72
2023/03/19 00:51:16;;;;;;;31.17;17.30;;;;;;;2.92;66.81;95563.75;5016249;28;20206;-73
2023/03/19 00:53:44;;;;;;;28.42;16.67;;;;;;;2.88;66.73;95557.03;5016901;28;20235;-73
2023/03/19 00:56:12;;;;;;;32.55;16.40;;;;;;;2.81;67.14;95555.34;5016912;28;20211;-74
2023/03/19 00:58:40;;;;;;;26.85;16.83;;;;;;;2.68;67.59;95554.47;5016507;28;20208;-73
2023/03/19 01:01:07;;;;;;;31.27;16.58;;;;;;;2.67;67.27;95553.63;5016784;28;20199;-73
2023/03/19 01:03:34;;;;;;;37.08;17.42;;;;;;;2.64;67.86;95548.59;5017057;28;20211;-74
2023/03/19 01:06:02;;;;;;;28.42;15.10;;;;;;;2.66;67.49;95554.44;5017373;28;20382;-75
2023/03/19 01:08:29;;;;;;;25.88;15.80;;;;;;;2.62;67.93;95555.25;5016501;28;20597;-75
2023/03/19 01:10:55;;;;;;;29.33;15.27;;;;;;;2.59;67.11;95550.22;5015207;28;20231;-74
2023/03/19 01:13:22;;;;;;;25.30;15.73;;;;;;;2.55;67.25;95546.03;5017281;28;20315;-74
2023/03/19 01:15:52;;;;;;;32.85;14.63;;;;;;;2.55;67.69;95547.69;5017151;28;20424;-75
2023/03/19 01:18:19;;;;;;;25.67;12.85;;;;;;;2.54;67.33;95538.47;5016169;28;20219;-74
2023/03/19 01:20:45;;;;;;;27.98;12.43;;;;;;;2.58;68.41;95545.19;5015346;28;20277;-74
2023/03/19 01:23:13;;;;;;;23.97;13.13;;;;;;;2.53;68.22;95541.81;5015372;28;20437;-74
2023/03/19 01:25:40;;;;;;;22.95;12.90;;;;;;;2.58;68.34;95540.19;5016837;28;20242;-74
2023/03/19 01:28:07;;;;;;;20.52;12.55;;;;;;;2.56;68.88;95537.66;5016241;28;20611;-73
2023/03/19 01:30:34;;;;;;;19.25;11.90;;;;;;;2.50;68.31;95540.13;5015562;28;20260;-74
2023/03/19 01:33:00;;;;;;;19.95;12.20;;;;;;;2.47;69.23;95542.66;5015846;28;20231;-74
2023/03/19 01:35:27;;;;;;;20.15;12.27;;;;;;;2.54;68.96;95546.84;5016838;28;20379;-74
2023/03/19 01:37:54;;;;;;;19.92;12.65;;;;;;;2.46;68.90;95543.47;5015953;28;20303;-73
2023/03/19 01:40:22;;;;;;;27.17;15.80;;;;;;;2.38;68.49;95535.91;5016738;28;20302;-74
2023/03/19 01:42:54;;;;;;;21.75;14.60;;;;;;;2.35;68.19;95547.59;5015350;28;20223;-74
2023/03/19 01:45:32;;;;;;;28.30;14.68;;;;;;;2.27;68.38;95541.69;5016026;28;20269;-74
2023/03/19 01:47:59;;;;;;;35.58;15.70;;;;;;;2.26;68.34;95547.53;5015698;28;20239;-74
2023/03/19 01:50:33;;;;;;;33.80;16.25;;;;;;;2.24;67.98;95546.66;5015309;28;20248;-73
2023/03/19 01:53:00;;;;;;;35.57;19.07;;;;;;;2.17;68.76;95544.97;5015801;28;20231;-74
2023/03/19 01:55:29;;;;;;;37.50;19.40;;;;;;;2.13;68.46;95554.13;5014787;28;20212;-74
2023/03/19 01:57:57;;;;;;;35.58;17.95;;;;;;;2.05;68.94;95549.06;5016128;28;20273;-73
2023/03/19 02:00:24;;;;;;;34.03;18.70;;;;;;;2.04;69.06;95549.91;5015736;28;20763;-74
2023/03/19 02:02:53;;;;;;;42.57;19.87;;;;;;;2.05;69.74;95543.22;5014388;28;21377;-75
2023/03/19 02:05:24;;;;;;;35.08;17.90;;;;;;;2.05;69.62;95549.06;5015983;28;20305;-74
2023/03/19 02:07:53;;;;;;;30.40;17.88;;;;;;;2.06;69.83;95547.41;5016350;28;20212;-74
2023/03/19 02:10:21;;;;;;;33.72;18.25;;;;;;;2.09;70.07;95546.59;5015586;28;20362;-74
2023/03/19 02:12:49;;;;;;;33.90;18.65;;;;;;;2.09;69.85;95549.09;5019796;28;20230;-74
2023/03/19 02:15:16;;;;;;;31.00;17.65;;;;;;;2.08;69.41;95538.22;5019778;28;20207;-74
2023/03/19 02:17:43;;;;;;;29.90;17.37;;;;;;;2.08;69.62;95542.41;5019726;28;20338;-74
2023/03/19 02:20:17;;;;;;;35.45;16.17;;;;;;;2.12;69.61;95542.44;5018831;28;20200;-74
2023/03/19 02:22:54;;;;;;;34.77;15.37;;;;;;;2.19;68.96;95545.81;5017905;28;20820;-72
2023/03/19 02:25:28;;;;;;;23.30;13.93;;;;;;;2.14;70.04;95544.94;5018729;28;20788;-74
2023/03/19 02:27:56;;;;;;;25.40;15.90;;;;;;;2.05;69.60;95541.53;5018675;28;20783;-74
2023/03/19 02:30:25;;;;;;;24.33;14.77;;;;;;;2.05;69.45;95544.06;5019672;28;20283;-74
2023/03/19 02:32:52;;;;;;;26.60;14.45;;;;;;;2.06;69.24;95547.41;5018490;28;20208;-74
2023/03/19 02:35:19;;;;;;;25.85;13.60;;;;;;;2.13;69.99;95540.78;5019221;28;20215;-72
2023/03/19 02:37:46;;;;;;;27.67;14.23;;;;;;;2.12;69.83;95549.97;5018519;28;20215;-74
2023/03/19 02:40:19;;;;;;;29.83;15.50;;;;;;;2.11;69.61;95550.78;5018539;28;20834;-74
2023/03/19 02:42:46;;;;;;;31.35;14.43;;;;;;;2.12;70.07;95551.63;5018252;28;20268;-73
2023/03/19 02:45:14;;;;;;;23.90;13.10;;;;;;;2.07;69.82;95554.09;5018503;28;20235;-74
2023/03/19 02:47:42;;;;;;;22.70;12.90;;;;;;;2.07;70.33;95553.25;5019225;28;20208;-74
2023/03/19 02:50:09;;;;;;;28.85;14.05;;;;;;;2.07;69.66;95563.28;5019383;28;20231;-73
2023/03/19 02:52:36;;;;;;;24.13;13.40;;;;;;;2.07;70.15;95563.28;5018026;28;21816;-74
2023/03/19 02:55:03;;;;;;;28.53;14.30;;;;;;;1.98;70.08;95567.38;5019170;28;20687;-74
2023/03/19 02:57:30;;;;;;;23.90;15.13;;;;;;;1.94;70.73;95564.88;5016662;28;20327;-75
2023/03/19 02:59:56;;;;;;;31.88;17.45;;;;;;;1.79;71.48;95563.06;5018272;28;20245;-72
2023/03/19 03:02:25;;;;;;;29.38;16.10;;;;;;;1.79;71.21;95565.56;5017563;28;20314;-77
2023/03/19 03:04:51;;;;;;;25.50;15.35;;;;;;;1.73;70.95;95562.19;5017465;28;20677;-74
2023/03/19 03:07:18;;;;;;;30.92;15.75;;;;;;;1.77;71.23;95572.25;5016829;28;20302;-72
2023/03/19 03:09:44;;;;;;;24.50;14.68;;;;;;;1.74;71.25;95572.22;5017131;28;20211;-72
2023/03/19 03:12:11;;;;;;;29.80;14.67;;;;;;;1.81;71.22;95571.44;5017004;28;20642;-72
2023/03/19 03:14:39;;;;;;;22.23;12.90;;;;;;;1.83;70.75;95571.47;5016740;28;20307;-72
2023/03/19 03:17:07;;;;;;;24.98;12.07;;;;;;;1.86;71.44;95574.00;5018546;28;20212;-72
2023/03/19 03:19:35;;;;;;;22.00;11.87;;;;;;;1.82;70.76;95580.63;5015366;28;20207;-72
2023/03/19 03:22:02;;;;;;;21.48;10.75;;;;;;;1.81;70.12;95571.44;5016031;28;20227;-72
2023/03/19 03:24:29;;;;;;;21.97;12.63;;;;;;;1.73;71.06;95573.06;5018098;28;20718;-72
2023/03/19 03:26:56;;;;;;;19.40;10.88;;;;;;;1.68;71.35;95574.69;5017631;28;20228;-73
2023/03/19 03:29:22;;;;;;;17.85;10.13;;;;;;;1.71;71.44;95574.72;5018109;28;20294;-72
2023/03/19 03:31:49;;;;;;;21.38;10.77;;;;;;;1.64;70.68;95577.97;5017936;28;20293;-73
2023/03/19 03:34:16;;;;;;;16.20;9.47;;;;;;;1.63;70.79;95572.13;5017807;28;20243;-72
2023/03/19 03:36:45;;;;;;;13.07;9.73;;;;;;;1.70;70.48;95580.56;5018193;28;20266;-73
2023/03/19 03:39:12;;;;;;;15.53;8.50;;;;;;;1.57;70.35;95583.75;5017318;28;20207;-73
2023/03/19 03:41:39;;;;;;;23.93;10.13;;;;;;;1.49;71.27;95582.84;5018330;28;20249;-73
2023/03/19 03:44:07;;;;;;;16.75;11.20;;;;;;;1.33;71.43;95575.19;5018192;28;20793;-73
2023/03/19 03:46:34;;;;;;;33.27;19.20;;;;;;;1.41;71.75;95581.94;5017383;28;20598;-73
2023/03/19 03:49:00;;;;;;;35.53;21.57;;;;;;;1.52;71.40;95587.88;5016991;28;20273;-73
2023/03/19 03:51:27;;;;;;;40.10;20.97;;;;;;;1.50;71.79;95584.50;5018141;28;20285;-73
2023/03/19 03:53:55;;;;;;;29.83;18.27;;;;;;;1.51;71.01;95592.03;5017706;28;20721;-73
2023/03/19 03:56:22;;;;;;;34.67;20.00;;;;;;;1.48;71.31;95596.22;5017263;28;20208;-72
2023/03/19 03:58:48;;;;;;;35.53;18.37;;;;;;;1.46;71.53;95592.84;5017138;28;20254;-73
2023/03/19 04:01:16;;;;;;;27.33;17.25;;;;;;;1.47;71.88;95594.53;5018473;28;20294;-72
2023/03/19 04:03:43;;;;;;;26.83;15.33;;;;;;;1.46;71.66;95591.19;5016996;28;20219;-72
2023/03/19 04:06:14;;;;;;;18.33;11.90;;;;;;;1.50;70.54;95584.50;5018469;28;20195;-73
2023/03/19 04:08:41;;;;;;;19.73;11.27;;;;;;;1.53;70.41;95589.56;5017693;28;20231;-73
2023/03/19 04:11:09;;;;;;;22.30;12.50;;;;;;;1.57;70.76;95588.75;5017650;28;20317;-73
2023/03/19 04:13:36;;;;;;;17.20;12.90;;;;;;;1.60;70.80;95588.78;5017963;28;20287;-73
2023/03/19 04:16:03;;;;;;;22.03;12.77;;;;;;;1.54;70.63;95576.22;5018079;28;20200;-73
2023/03/19 04:18:30;;;;;;;21.27;12.55;;;;;;;1.55;70.23;95585.41;5015972;28;20311;-73
2023/03/19 04:20:57;;;;;;;14.65;10.93;;;;;;;1.57;70.87;95583.75;5017607;28;20759;-72
2023/03/19 04:23:24;;;;;;;17.80;10.83;;;;;;;1.54;71.37;95586.22;5018340;28;20231;-73
2023/03/19 04:25:50;;;;;;;17.10;11.03;;;;;;;1.54;71.07;95577.06;5017844;28;20208;-73
2023/03/19 04:28:19;;;;;;;18.33;10.93;;;;;;;1.64;71.18;95578.81;5017074;28;20756;-72
2023/03/19 04:30:46;;;;;;;18.05;9.82;;;;;;;1.72;71.62;95586.41;5016770;28;20215;-72
2023/03/19 04:33:12;;;;;;;15.88;10.43;;;;;;;1.77;70.74;95589.78;5016359;28;20211;-73
2023/03/19 04:35:39;;;;;;;19.23;11.40;;;;;;;1.76;71.11;95584.75;5017768;28;20212;-73
2023/03/19 04:38:06;;;;;;;17.33;10.37;;;;;;;1.84;70.88;95588.16;5017087;28;20265;-73
2023/03/19 04:40:32;;;;;;;16.17;10.70;;;;;;;1.91;70.59;95588.25;5018155;28;20211;-72
2023/03/19 04:42:59;;;;;;;21.77;9.77;;;;;;;1.94;70.01;95588.28;5017447;28;20242;-73
2023/03/19 04:45:27;;;;;;;19.52;10.65;;;;;;;2.00;70.44;95595.81;5017937;28;20338;-73
2023/03/19 04:47:55;;;;;;;17.45;9.65;;;;;;;2.04;69.60;95597.53;5016370;28;20215;-74
2023/03/19 04:50:21;;;;;;;10.60;8.77;;;;;;;2.02;69.78;95600.84;5017615;28;20202;-74
2023/03/19 04:52:48;;;;;;;15.73;8.48;;;;;;;2.00;70.11;95607.50;5016917;28;20196;-72
2023/03/19 04:55:15;;;;;;;21.95;9.68;;;;;;;2.05;69.91;95598.38;5017584;28;20207;-72
2023/03/19 04:57:41;;;;;;;13.73;10.03;;;;;;;2.13;70.09;95601.78;5016184;28;20689;-72
2023/03/19 05:00:09;;;;;;;21.15;10.90;;;;;;;2.26;69.29;95601.03;5016387;28;20757;-72
2023/03/19 05:02:37;;;;;;;21.60;10.07;;;;;;;2.44;69.02;95594.47;5016594;28;20762;-72
2023/03/19 05:05:05;;;;;;;18.98;9.15;;;;;;;3.28;68.72;95588.97;5016775;28;20304;-72
2023/03/19 05:07:32;;;;;;;19.27;9.38;;;;;;;5.46;62.92;95591.19;5016812;28;20251;-72
2023/03/19 05:09:58;;;;;;;18.70;9.88;;;;;;;7.62;56.11;95579.06;5017779;28;20325;-72
2023/03/19 05:12:25;;;;;;;18.60;10.02;;;;;;;9.04;52.04;95584.31;5017041;28;20231;-73
2023/03/19 05:14:52;;;;;;;15.50;10.13;;;;;;;9.93;49.35;95581.56;5017445;28;20195;-73
2023/03/19 05:17:19;;;;;;;18.58;11.23;;;;;;;10.58;47.16;95584.28;5015926;28;20211;-73
2023/03/19 05:19:47;;;;;;;25.00;11.20;;;;;;;11.38;45.06;95566.03;5016516;28;20239;-72
2023/03/19 05:22:14;;;;;;;18.88;11.40;;;;;;;12.44;42.56;95574.66;5016954;28;20672;-72
2023/03/19 05:24:40;;;;;;;16.70;10.82;;;;;;;13.75;38.49;95576.88;5017248;28;20208;-73
2023/03/19 05:27:07;;;;;;;18.80;10.82;;;;;;;15.15;36.32;95566.06;5017568;28;20726;-73
2023/03/19 05:29:35;;;;;;;15.35;9.73;;;;;;;16.66;33.95;95565.06;5016019;28;20740;-73
2023/03/19 05:32:02;;;;;;;12.85;9.55;;;;;;;17.90;30.52;95559.50;5016228;28;20220;-73
2023/03/19 05:34:28;;;;;;;14.10;8.80;;;;;;;18.21;29.23;95550.94;5016157;28;20319;-74
2023/03/19 05:36:57;;;;;;;11.07;8.13;;;;;;;17.93;29.05;95562.75;5016896;28;20217;-73
2023/03/19 05:39:24;;;;;;;11.75;7.93;;;;;;;17.57;29.07;95559.56;5016445;28;20771;-73
2023/03/19 05:41:51;;;;;;;11.55;8.60;;;;;;;17.60;29.41;95565.34;5016616;28;20208;-73
2023/03/19 05:44:18;;;;;;;12.98;8.50;;;;;;;18.31;28.87;95567.53;5018798;28;20262;-73
2023/03/19 05:46:45;;;;;;;17.40;10.68;;;;;;;19.42;27.32;95558.47;5020582;28;20394;-73
2023/03/19 05:49:11;;;;;;;16.50;11.77;;;;;;;20.54;25.85;95560.13;5020254;28;20744;-74
2023/03/19 05:51:38;;;;;;;15.07;10.68;;;;;;;21.53;24.71;95556.88;5020288;28;20286;-74
2023/03/19 05:54:06;;;;;;;14.85;11.50;;;;;;;22.15;24.15;95562.03;5020334;28;20901;-74
2023/03/19 05:56:33;;;;;;;20.52;12.43;;;;;;;22.79;23.00;95567.75;5021283;28;20294;-73
2023/03/19 05:59:00;;;;;;;18.33;11.23;;;;;;;22.84;22.74;95560.47;5019937;28;20705;-73
2023/03/19 06:01:27;;;;;;;15.82;11.10;;;;;;;23.38;22.74;95563.28;5019850;28;20735;-73
2023/03/19 06:03:53;;;;;;;15.65;10.52;;;;;;;23.64;22.06;95557.88;5018290;28;20322;-73
2023/03/19 06:06:20;;;;;;;15.02;11.32;;;;;;;23.72;22.25;95550.34;5020430;28;20210;-74
2023/03/19 06:08:47;;;;;;;16.20;11.45;;;;;;;23.87;22.34;95553.50;5020681;28;20228;-74
2023/03/19 06:11:15;;;;;;;16.38;12.95;;;;;;;23.32;21.72;95558.53;5020108;28;20247;-73
2023/03/19 06:13:42;;;;;;;19.60;13.25;;;;;;;22.11;22.67;95563.19;5019868;28;20206;-73
2023/03/19 06:16:09;;;;;;;20.08;13.57;;;;;;;20.58;24.24;95561.53;5020638;28;20214;-73
2023/03/19 06:18:36;;;;;;;19.52;14.05;;;;;;;19.78;25.70;95564.94;5019347;28;21075;-73
2023/03/19 06:21:03;;;;;;;18.60;13.32;;;;;;;19.91;25.84;95556.31;5019401;28;20203;-73
2023/03/19 06:23:30;;;;;;;25.65;15.48;;;;;;;20.55;25.30;95561.75;5020193;28;20227;-73
2023/03/19 06:25:56;;;;;;;25.08;16.45;;;;;;;20.54;25.20;95560.91;5020341;28;20208;-73
2023/03/19 06:28:24;;;;;;;23.42;17.58;;;;;;;20.30;25.50;95568.44;5020978;28;20290;-73
2023/03/19 06:30:53;;;;;;;21.83;17.27;;;;;;;20.03;25.63;95565.06;5020294;28;20306;-73
2023/03/19 06:33:20;;;;;;;24.35;18.23;;;;;;;19.78;25.97;95577.81;5020114;28;20269;-73
2023/03/19 06:35:48;;;;;;;26.38;18.63;;;;;;;19.40;26.63;95575.78;5019627;28;20636;-73
2023/03/19 06:38:15;;;;;;;35.05;19.17;;;;;;;18.83;27.18;95586.00;5019855;28;20239;-74
2023/03/19 06:40:41;;;;;;;32.15;20.17;;;;;;;18.35;27.97;95584.44;5020276;28;20317;-73
2023/03/19 06:43:08;;;;;;;31.83;20.63;;;;;;;18.57;27.74;95574.59;5019132;28;20326;-73
2023/03/19 06:45:36;;;;;;;31.27;20.55;;;;;;;19.86;26.17;95585.91;5019116;28;20590;-73
2023/03/19 06:48:03;;;;;;;33.13;19.77;;;;;;;21.24;24.75;95587.31;5017869;28;21058;-73
2023/03/19 06:50:30;;;;;;;24.90;18.83;;;;;;;22.97;22.91;95581.13;5018503;28;20963;-74
2023/03/19 06:52:57;;;;;;;24.60;19.42;;;;;;;24.14;21.11;95585.09;5020449;28;20320;-73
2023/03/19 06:55:24;;;;;;;26.67;18.85;;;;;;;24.42;20.40;95592.38;5018563;28;20249;-74
2023/03/19 06:57:51;;;;;;;24.77;18.15;;;;;;;24.52;20.63;95581.22;5019665;28;20212;-73
2023/03/19 07:00:19;;;;;;;24.08;17.50;;;;;;;24.67;20.63;95588.63;5018998;28;20231;-73
2023/03/19 07:02:47;;;;;;;20.92;17.35;;;;;;;24.32;21.07;95590.63;5019489;28;20204;-73
2023/03/19 07:05:14;;;;;;;29.45;19.40;;;;;;;23.81;21.34;95591.13;5018697;28;20298;-73
2023/03/19 07:07:41;;;;;;;29.05;19.65;;;;;;;23.66;21.52;95593.16;5018925;28;20239;-72
2023/03/19 07:10:08;;;;;;;26.08;21.08;;;;;;;23.15;22.00;95597.06;5019020;28;20263;-72
2023/03/19 07:12:36;;;;;;;24.15;18.38;;;;;;;23.27;21.84;95593.53;5018644;28;20680;-73
2023/03/19 07:15:03;;;;;;;25.10;18.48;;;;;;;23.56;22.01;95581.81;5017977;28;20696;-74
2023/03/19 07:17:30;;;;;;;28.70;20.77;;;;;;;24.98;20.40;95588.75;5019210;28;20211;-73
2023/03/19 07:19:58;;;;;;;26.58;18.08;;;;;;;25.76;20.01;95590.84;5018884;28;20207;-71
2023/03/19 07:22:25;;;;;;;27.58;21.90;;;;;;;25.43;20.00;95589.31;5018982;28;20317;-75
2023/03/19 07:24:51;;;;;;;36.92;26.88;;;;;;;25.57;19.55;95586.34;5018860;28;20239;-74
2023/03/19 07:27:18;;;;;;;63.33;39.13;;;;;;;26.82;19.02;95588.50;5019404;28;20320;-72
2023/03/19 07:29:45;;;;;;;18.25;16.45;;;;;;;28.23;17.75;95577.16;5019881;28;20305;-75
2023/03/19 07:32:12;;;;;;;20.33;16.63;;;;;;;29.47;16.82;95565.81;5019176;28;20420;-75
2023/03/19 07:34:39;;;;;;;22.90;17.20;;;;;;;30.57;15.84;95572.84;5018317;28;20677;-74
2023/03/19 07:37:07;;;;;;;20.75;16.90;;;;;;;31.56;15.05;95573.50;5019721;28;20222;-74
2023/03/19 07:39:34;;;;;;;17.67;14.65;;;;;;;31.42;15.47;95567.16;5019188;28;20281;-74
2023/03/19 07:42:01;;;;;;;14.65;13.10;;;;;;;32.44;14.69;95563.66;5018160;28;20204;-74
2023/03/19 07:44:27;;;;;;;14.00;11.90;;;;;;;33.11;14.40;95574.41;5017762;28;20721;-75
2023/03/19 07:46:54;;;;;;;13.27;12.02;;;;;;;33.31;14.07;95576.56;5017870;28;20203;-75
2023/03/19 07:49:21;;;;;;;32.92;20.63;;;;;;;33.46;13.88;95569.50;5017992;28;20223;-72
2023/03/19 07:51:48;;;;;;;13.18;11.88;;;;;;;34.10;13.26;95572.44;5019419;28;20204;-74
2023/03/19 07:54:16;;;;;;;11.60;10.50;;;;;;;34.42;12.92;95568.56;5017819;28;20207;-74
2023/03/19 07:56:42;;;;;;;17.40;10.95;;;;;;;34.45;13.43;95568.22;5018825;28;20207;-74
2023/03/19 07:59:10;;;;;;;12.00;10.88;;;;;;;35.71;12.26;95567.50;5018457;28;20199;-73
2023/03/19 08:01:36;;;;;;;10.68;9.77;;;;;;;36.00;12.68;95563.84;5019736;28;20409;-75
2023/03/19 08:04:03;;;;;;;10.65;9.70;;;;;;;36.64;12.18;95555.50;5016028;28;20235;-73
2023/03/19 08:06:30;;;;;;;10.40;9.40;;;;;;;36.12;12.17;95557.78;5018574;28;20265;-74
2023/03/19 08:08:56;;;;;;;11.73;10.63;;;;;;;33.58;12.95;95564.63;5017572;28;20214;-74
2023/03/19 08:11:25;;;;;;;14.60;11.68;;;;;;;33.45;13.38;95567.88;5017517;28;20266;-74
2023/03/19 08:13:51;;;;;;;10.93;9.82;;;;;;;34.77;13.05;95564.28;5017831;28;20251;-74
2023/03/19 08:16:18;;;;;;;12.18;9.88;;;;;;;35.89;11.95;95561.72;5017393;28;20227;-74
2023/03/19 08:18:45;;;;;;;12.63;10.77;;;;;;;35.85;11.97;95558.69;5018402;28;20225;-73
2023/03/19 08:21:11;;;;;;;10.75;8.95;;;;;;;36.69;11.82;95564.50;5018356;28;20218;-73
2023/03/19 08:23:38;;;;;;;9.70;8.70;;;;;;;36.38;11.17;95554.44;5018212;28;20251;-74
2023/03/19 08:26:05;;;;;;;10.07;9.10;;;;;;;36.56;11.63;95553.06;5017342;28;20207;-75
2023/03/19 08:28:33;;;;;;;13.55;12.15;;;;;;;36.25;11.28;95565.00;5016901;28;20232;-75
2023/03/19 08:31:07;;;;;;;13.48;11.20;;;;;;;36.37;11.47;95562.59;5016753;28;20262;-74
2023/03/19 08:33:33;;;;;;;10.40;9.55;;;;;;;36.39;10.99;95569.31;5017725;28;20287;-75
2023/03/19 08:36:06;;;;;;;10.88;9.77;;;;;;;35.54;11.46;95566.19;5017067;28;20231;-74
2023/03/19 08:38:32;;;;;;;9.60;8.85;;;;;;;36.49;11.18;95555.69;5017655;28;20211;-74
2023/03/19 08:41:01;;;;;;;9.68;8.80;;;;;;;36.50;11.19;95545.94;5017997;28;20695;-74
2023/03/19 08:43:28;;;;;;;10.90;7.85;;;;;;;36.70;11.40;95550.25;5017502;28;21289;-74
2023/03/19 08:45:56;;;;;;;9.25;8.45;;;;;;;35.58;11.62;95547.09;5016468;28;20594;-75
2023/03/19 08:48:23;;;;;;;8.68;8.00;;;;;;;34.87;12.20;95548.16;5017346;28;21533;-73
2023/03/19 08:50:53;;;;;;;9.73;8.93;;;;;;;34.69;12.07;95548.56;5016569;28;20232;-75
2023/03/19 08:53:20;;;;;;;8.82;8.05;;;;;;;34.08;12.15;95550.72;5018405;28;20199;-73
2023/03/19 08:55:51;;;;;;;8.38;7.78;;;;;;;33.84;12.79;95537.81;5017243;28;20218;-72
2023/03/19 08:58:18;;;;;;;9.43;8.52;;;;;;;33.15;12.81;95530.09;5017619;28;20235;-73
2023/03/19 09:00:45;;;;;;;20.67;16.98;;;;;;;32.50;13.46;95529.75;5017309;28;20208;-73
2023/03/19 09:03:13;;;;;;;15.40;13.75;;;;;;;31.25;13.60;95538.44;5017682;28;20204;-74
2023/03/19 09:05:40;;;;;;;9.65;8.73;;;;;;;30.26;14.51;95531.47;5015370;28;20255;-74
2023/03/19 09:08:07;;;;;;;10.13;8.90;;;;;;;29.21;15.15;95529.13;5016452;28;20313;-72
2023/03/19 09:10:33;;;;;;;12.05;9.93;;;;;;;28.77;16.09;95525.69;5017304;28;20246;-73
2023/03/19 09:13:00;;;;;;;13.15;10.07;;;;;;;28.25;16.25;95525.56;5015486;28;20218;-72
2023/03/19 09:15:27;;;;;;;11.40;10.18;;;;;;;26.62;17.38;95522.50;5015389;28;20202;-74
2023/03/19 09:17:54;;;;;;;9.82;9.00;;;;;;;25.39;17.87;95509.84;5015821;28;20215;-74
2023/03/19 09:20:22;;;;;;;16.40;13.18;;;;;;;24.61;18.94;95518.13;5016315;28;20338;-72
2023/03/19 09:22:49;;;;;;;23.10;15.18;;;;;;;23.89;19.71;95518.69;5015808;28;20215;-73
2023/03/19 09:25:16;;;;;;;12.18;10.00;;;;;;;23.22;20.20;95517.88;5013878;28;20240;-72
2023/03/19 09:27:42;;;;;;;11.07;9.88;;;;;;;22.29;21.39;95530.78;5015085;28;20242;-73
2023/03/19 09:30:11;;;;;;;10.30;9.27;;;;;;;21.46;21.84;95521.22;5015091;28;20242;-75
2023/03/19 09:32:37;;;;;;;12.23;9.32;;;;;;;20.54;22.45;95519.59;5015575;28;20208;-72
2023/03/19 09:35:05;;;;;;;11.55;8.82;;;;;;;19.64;23.48;95517.59;5016703;28;20223;-73
2023/03/19 09:37:33;;;;;;;9.10;8.18;;;;;;;19.10;24.58;95518.34;5014939;28;20234;-73
2023/03/19 09:40:00;;;;;;;10.77;8.70;;;;;;;18.82;24.93;95517.38;5015432;28;20235;-74
2023/03/19 09:42:44;;;;;;;9.88;9.00;;;;;;;18.32;24.67;95518.53;5014736;28;20214;-73
2023/03/19 09:45:15;;;;;;;16.40;13.13;;;;;;;18.26;24.69;95526.63;5014919;28;20334;-73
2023/03/19 09:47:44;;;;;;;18.88;12.48;;;;;;;17.96;24.95;95506.00;5014870;28;20204;-74
2023/03/19 09:50:14;;;;;;;9.45;8.63;;;;;;;17.86;25.34;95519.44;5014991;28;20210;-74
2023/03/19 09:52:46;;;;;;;13.32;8.50;;;;;;;17.62;25.81;95513.84;5015760;28;20231;-75
2023/03/19 09:55:28;;;;;;;8.57;7.78;;;;;;;17.30;26.34;95516.41;5015049;28;20318;-73
2023/03/19 09:57:57;;;;;;;13.73;10.30;;;;;;;16.89;26.54;95520.28;5014541;28;20273;-73
2023/03/19 10:00:26;;;;;;;11.23;8.60;;;;;;;16.54;26.88;95510.03;5014619;28;20738;-73
2023/03/19 10:03:01;;;;;;;10.82;9.10;;;;;;;16.46;27.57;95506.19;5015089;28;20208;-74
2023/03/19 10:05:41;;;;;;;11.00;8.30;;;;;;;16.53;28.05;95504.97;5014892;28;20322;-73
2023/03/19 10:08:38;;;;;;;7.80;6.70;;;;;;;16.55;27.02;95498.88;5015679;28;20207;-73
2023/03/19 10:11:23;;;;;;;6.80;6.18;;;;;;;16.39;27.58;95497.13;5015023;28;20236;-73
2023/03/19 10:14:02;;;;;;;6.43;5.82;;;;;;;16.31;26.92;95488.09;5015068;28;20718;-73
2023/03/19 10:16:30;;;;;;;6.45;5.95;;;;;;;16.16;27.18;95490.56;5015191;28;20211;-73
2023/03/19 10:19:00;;;;;;;9.50;7.75;;;;;;;16.16;27.73;95480.28;5015516;28;20329;-73
2023/03/19 10:21:34;;;;;;;16.08;12.23;;;;;;;16.19;28.81;95483.53;5015798;28;20203;-74
2023/03/19 10:24:06;;;;;;;11.38;7.70;;;;;;;16.31;28.38;95477.84;5015591;28;20340;-72
2023/03/19 10:26:35;;;;;;;9.95;6.82;;;;;;;16.32;27.95;95484.63;5013552;28;20300;-73
2023/03/19 10:29:07;;;;;;;7.95;7.25;;;;;;;16.30;27.87;95471.03;5016075;28;20245;-74
2023/03/19 10:31:47;;;;;;;7.00;6.10;;;;;;;16.26;27.76;95458.44;5017765;28;20235;-74
2023/03/19 10:34:23;;;;;;;6.72;6.00;;;;;;;16.06;28.64;95463.72;5019858;28;20195;-72
2023/03/19 10:36:49;;;;;;;7.03;6.40;;;;;;;16.05;28.80;95455.19;5019927;28;20199;-73
2023/03/19 10:39:18;;;;;;;10.20;6.25;;;;;;;15.95;28.80;95452.25;5019672;28;20226;-72
2023/03/19 10:41:53;;;;;;;7.57;6.93;;;;;;;15.82;29.03;95445.22;5019247;28;20203;-74
2023/03/19 10:44:29;;;;;;;8.68;6.28;;;;;;;15.96;29.14;95442.81;5019963;28;20288;-74
2023/03/19 10:46:58;;;;;;;6.60;5.90;;;;;;;15.93;29.44;95437.84;5020382;28;20235;-74
2023/03/19 10:49:26;;;;;;;9.25;6.13;;;;;;;16.01;29.05;95429.78;5018023;28;20307;-75
2023/03/19 10:51:57;;;;;;;6.70;6.07;;;;;;;15.94;29.35;95427.50;5020078;28;20207;-74
2023/03/19 10:54:27;;;;;;;9.27;5.82;;;;;;;16.04;28.90;95427.06;5018863;28;20289;-74
2023/03/19 10:56:56;;;;;;;9.85;6.07;;;;;;;15.60;29.35;95412.91;5019515;28;20792;-73
2023/03/19 10:59:25;;;;;;;7.05;5.85;;;;;;;15.67;30.07;95415.19;5018602;28;20705;-73
2023/03/19 11:01:57;;;;;;;9.13;7.50;;;;;;;15.81;30.77;95405.97;5017092;28;20206;-76
2023/03/19 11:04:27;;;;;;;6.82;5.90;;;;;;;15.88;30.42;95411.59;5017900;28;20297;-78
2023/03/19 11:06:56;;;;;;;6.90;6.00;;;;;;;15.90;30.31;95402.09;5018680;28;20207;-77
2023/03/19 11:09:32;;;;;;;20.23;13.07;;;;;;;15.97;31.75;95400.91;5016935;28;20204;-77
2023/03/19 11:12:07;;;;;;;16.33;11.93;;;;;;;16.06;31.53;95399.63;5017400;28;20207;-78
2023/03/19 11:14:37;;;;;;;10.55;8.00;;;;;;;16.31;31.00;95400.06;5016419;28;20219;-76
2023/03/19 11:17:06;;;;;;;8.00;6.93;;;;;;;16.23;30.84;95376.53;5016054;28;20208;-69
2023/03/19 11:19:39;;;;;;;6.68;5.65;;;;;;;16.33;31.45;95372.59;5016966;28;20334;-69
2023/03/19 11:22:16;;;;;;;8.77;7.30;;;;;;;16.52;31.67;95378.44;5016578;28;20207;-70
2023/03/19 11:24:51;;;;;;;8.15;7.45;;;;;;;16.63;31.21;95377.84;5014342;28;20686;-69
2023/03/19 11:27:19;;;;;;;7.57;6.80;;;;;;;16.66;31.29;95370.88;5015213;28;20564;-66
2023/03/19 11:29:46;;;;;;;8.35;7.45;;;;;;;16.59;30.67;95354.09;5014119;28;20216;-66